PWSweather.com
Personal Weather Stations
Station Observations
KKSGOODL5
11 Miles Nne, Goodland, KS 67735

11 Miles NneGoodland, KS 67735

Lat: 39.49, Lon: -101.63

Elevation: 3450

Station Type: Davis Instruments Vantage Pro2

http://weather.ccrouch.com/

Latest ConditionsUpdated 4:25:06 PM MDT Thursday, Jul 18, 2019
Currently Today's Max Today's Min Today's Average
Temperature 99.7°F37.6°C 100.6°F38.1°C 61.6°F16.4°C 80.4°F26.9°C
Dew Point 56.5°F13.6°C 65.4°F18.6°C 52.2°F11.2°C 59.5°F15.3°C
Winds 10.0 mph SE16.1 kmh SE 14.0 mph -22.5 kmh - - 6.5 mph 10.5 kmh
Wind Gusts 18.0 mph29.0 kmh 20.0 mph32.2 kmh - -
Humidity 24% 92% 21% 57%
Pressure 29.47 in998.0 mb 29.54 in1000.3 mb 29.47 in998.0 mb -
Hour Temp Dew Point Humidity Winds Wind Gusts Pressure Precip Precip Rate Daily Precip Total
04:25 PM 99.7°F37.6°C 56.5°F13.6°C 24% 10.0 mph SE16.1 kmh SE 18.0 mph29.0 kmh 29.47 in998.0 mb 0.00 in0.0 mm 0.00 in0.0 mm 0.00 in0.0 mm
04:20 PM 100.0°F37.8°C 56.8°F13.8°C 24% 13.0 mph SE20.9 kmh SE 18.0 mph29.0 kmh 29.48 in998.3 mb 0.00 in0.0 mm 0.00 in0.0 mm 0.00 in0.0 mm
04:15 PM 100.1°F37.8°C 54.5°F12.5°C 22% 8.0 mph SE12.9 kmh SE 10.0 mph16.1 kmh 29.47 in998.0 mb 0.00 in0.0 mm 0.00 in0.0 mm 0.00 in0.0 mm
04:10 PM 100.0°F37.8°C 53.1°F11.7°C 21% 10.0 mph SSE16.1 kmh SSE 15.0 mph24.1 kmh 29.47 in998.0 mb 0.00 in0.0 mm 0.00 in0.0 mm 0.00 in0.0 mm
04:05 PM 100.2°F37.9°C 55.8°F13.2°C 23% 10.0 mph SE16.1 kmh SE 15.0 mph24.1 kmh 29.48 in998.3 mb 0.00 in0.0 mm 0.00 in0.0 mm 0.00 in0.0 mm
04:00 PM 100.2°F37.9°C 55.8°F13.2°C 23% 5.0 mph SE8.0 kmh SE 6.0 mph9.7 kmh 29.47 in998.0 mb 0.00 in0.0 mm 0.00 in0.0 mm 0.00 in0.0 mm
03:55 PM 100.3°F37.9°C 54.6°F12.6°C 22% 11.0 mph SE17.7 kmh SE 15.0 mph24.1 kmh 29.48 in998.3 mb 0.00 in0.0 mm 0.00 in0.0 mm 0.00 in0.0 mm
03:50 PM 100.2°F37.9°C 56.9°F13.8°C 24% 10.0 mph SSE16.1 kmh SSE 13.0 mph20.9 kmh 29.48 in998.3 mb 0.00 in0.0 mm 0.00 in0.0 mm 0.00 in0.0 mm
03:45 PM 100.2°F37.9°C 56.9°F13.8°C 24% 12.0 mph SE19.3 kmh SE 13.0 mph20.9 kmh 29.48 in998.3 mb 0.00 in0.0 mm 0.00 in0.0 mm 0.00 in0.0 mm
03:40 PM 100.1°F37.8°C 56.9°F13.8°C 24% 6.0 mph SSE9.7 kmh SSE 16.0 mph25.7 kmh 29.48 in998.3 mb 0.00 in0.0 mm 0.00 in0.0 mm 0.00 in0.0 mm
03:35 PM 100.0°F37.8°C 56.8°F13.8°C 24% 11.0 mph SE17.7 kmh SE 16.0 mph25.7 kmh 29.49 in998.6 mb 0.00 in0.0 mm 0.00 in0.0 mm 0.00 in0.0 mm
03:30 PM 100.2°F37.9°C 58.1°F14.5°C 25% 13.0 mph SE20.9 kmh SE 13.0 mph20.9 kmh 29.49 in998.6 mb 0.00 in0.0 mm 0.00 in0.0 mm 0.00 in0.0 mm
03:25 PM 100.1°F37.8°C 59.1°F15.1°C 26% 11.0 mph SE17.7 kmh SE 14.0 mph22.5 kmh 29.49 in998.6 mb 0.00 in0.0 mm 0.00 in0.0 mm 0.00 in0.0 mm
03:20 PM 100.0°F37.8°C 54.4°F12.4°C 22% 10.0 mph SSE16.1 kmh SSE 10.0 mph16.1 kmh 29.49 in998.6 mb 0.00 in0.0 mm 0.00 in0.0 mm 0.00 in0.0 mm
03:15 PM 100.1°F37.8°C 54.5°F12.5°C 22% 7.0 mph S11.3 kmh S 7.0 mph11.3 kmh 29.49 in998.6 mb 0.00 in0.0 mm 0.00 in0.0 mm 0.00 in0.0 mm
03:10 PM 100.3°F37.9°C 55.8°F13.2°C 23% 11.0 mph SE17.7 kmh SE 15.0 mph24.1 kmh 29.49 in998.6 mb 0.00 in0.0 mm 0.00 in0.0 mm 0.00 in0.0 mm
03:05 PM 100.6°F38.1°C 58.4°F14.7°C 25% 11.0 mph N17.7 kmh N 15.0 mph24.1 kmh 29.49 in998.6 mb 0.00 in0.0 mm 0.00 in0.0 mm 0.00 in0.0 mm
03:00 PM 100.3°F37.9°C 55.8°F13.2°C 23% 5.0 mph ESE8.0 kmh ESE 6.0 mph9.7 kmh 29.49 in998.6 mb 0.00 in0.0 mm 0.00 in0.0 mm 0.00 in0.0 mm
02:55 PM 100.3°F37.9°C 54.6°F12.6°C 22% 5.0 mph ESE8.0 kmh ESE 12.0 mph19.3 kmh 29.49 in998.6 mb 0.00 in0.0 mm 0.00 in0.0 mm 0.00 in0.0 mm
02:50 PM 100.5°F38.1°C 56.0°F13.3°C 23% 9.0 mph N14.5 kmh N 12.0 mph19.3 kmh 29.50 in999.0 mb 0.00 in0.0 mm 0.00 in0.0 mm 0.00 in0.0 mm
02:45 PM 100.3°F37.9°C 54.6°F12.6°C 22% 4.0 mph ESE6.4 kmh ESE 6.0 mph9.7 kmh 29.50 in999.0 mb 0.00 in0.0 mm 0.00 in0.0 mm 0.00 in0.0 mm
02:40 PM 100.3°F37.9°C 55.8°F13.2°C 23% 5.0 mph E8.0 kmh E 13.0 mph20.9 kmh 29.50 in999.0 mb 0.00 in0.0 mm 0.00 in0.0 mm 0.00 in0.0 mm
02:35 PM 100.2°F37.9°C 54.5°F12.5°C 22% 4.0 mph NE6.4 kmh NE 13.0 mph20.9 kmh 29.50 in999.0 mb 0.00 in0.0 mm 0.00 in0.0 mm 0.00 in0.0 mm
02:30 PM 100.4°F38.0°C 58.2°F14.6°C 25% 12.0 mph SE19.3 kmh SE 13.0 mph20.9 kmh 29.50 in999.0 mb 0.00 in0.0 mm 0.00 in0.0 mm 0.00 in0.0 mm
02:25 PM 100.3°F37.9°C 57.0°F13.9°C 24% 5.0 mph E8.0 kmh E 13.0 mph20.9 kmh 29.50 in999.0 mb 0.00 in0.0 mm 0.00 in0.0 mm 0.00 in0.0 mm
02:20 PM 100.1°F37.8°C 56.9°F13.8°C 24% 3.0 mph SE4.8 kmh SE 10.0 mph16.1 kmh 29.50 in999.0 mb 0.00 in0.0 mm 0.00 in0.0 mm 0.00 in0.0 mm
02:15 PM 99.9°F37.7°C 54.3°F12.4°C 22% 4.0 mph SE6.4 kmh SE 5.0 mph8.0 kmh 29.51 in999.3 mb 0.00 in0.0 mm 0.00 in0.0 mm 0.00 in0.0 mm
02:10 PM 99.8°F37.7°C 55.4°F13.0°C 23% 11.0 mph SE17.7 kmh SE 13.0 mph20.9 kmh 29.50 in999.0 mb 0.00 in0.0 mm 0.00 in0.0 mm 0.00 in0.0 mm
02:05 PM 99.4°F37.4°C 53.9°F12.2°C 22% 10.0 mph SE16.1 kmh SE 10.0 mph16.1 kmh 29.51 in999.3 mb 0.00 in0.0 mm 0.00 in0.0 mm 0.00 in0.0 mm
02:00 PM 98.9°F37.2°C 52.2°F11.2°C 21% 4.0 mph E6.4 kmh E 4.0 mph6.4 kmh 29.51 in999.3 mb 0.00 in0.0 mm 0.00 in0.0 mm 0.00 in0.0 mm
01:55 PM 98.8°F37.1°C 54.6°F12.6°C 23% 9.0 mph N14.5 kmh N 12.0 mph19.3 kmh 29.50 in999.0 mb 0.00 in0.0 mm 0.00 in0.0 mm 0.00 in0.0 mm
01:50 PM 98.8°F37.1°C 54.6°F12.6°C 23% 6.0 mph ENE9.7 kmh ENE 12.0 mph19.3 kmh 29.50 in999.0 mb 0.00 in0.0 mm 0.00 in0.0 mm 0.00 in0.0 mm
01:45 PM 98.7°F37.1°C 54.5°F12.5°C 23% 5.0 mph ESE8.0 kmh ESE 6.0 mph9.7 kmh 29.50 in999.0 mb 0.00 in0.0 mm 0.00 in0.0 mm 0.00 in0.0 mm
01:40 PM 98.6°F37.0°C 54.4°F12.4°C 23% 10.0 mph SE16.1 kmh SE 14.0 mph22.5 kmh 29.51 in999.3 mb 0.00 in0.0 mm 0.00 in0.0 mm 0.00 in0.0 mm
01:35 PM 98.6°F37.0°C 54.4°F12.4°C 23% 10.0 mph ESE16.1 kmh ESE 12.0 mph19.3 kmh 29.51 in999.3 mb 0.00 in0.0 mm 0.00 in0.0 mm 0.00 in0.0 mm
01:30 PM 98.5°F36.9°C 55.5°F13.1°C 24% 10.0 mph ESE16.1 kmh ESE 10.0 mph16.1 kmh 29.51 in999.3 mb 0.00 in0.0 mm 0.00 in0.0 mm 0.00 in0.0 mm
01:25 PM 98.2°F36.8°C 56.4°F13.6°C 25% 6.0 mph ENE9.7 kmh ENE 10.0 mph16.1 kmh 29.51 in999.3 mb 0.00 in0.0 mm 0.00 in0.0 mm 0.00 in0.0 mm
01:20 PM 97.7°F36.5°C 56.0°F13.3°C 25% 6.0 mph ENE9.7 kmh ENE 9.0 mph14.5 kmh 29.51 in999.3 mb 0.00 in0.0 mm 0.00 in0.0 mm 0.00 in0.0 mm
01:15 PM 97.6°F36.4°C 55.9°F13.3°C 25% 4.0 mph E6.4 kmh E 4.0 mph6.4 kmh 29.51 in999.3 mb 0.00 in0.0 mm 0.00 in0.0 mm 0.00 in0.0 mm
01:10 PM 97.8°F36.6°C 56.1°F13.4°C 25% 4.0 mph ESE6.4 kmh ESE 12.0 mph19.3 kmh 29.51 in999.3 mb 0.00 in0.0 mm 0.00 in0.0 mm 0.00 in0.0 mm
01:05 PM 98.2°F36.8°C 58.5°F14.7°C 27% 8.0 mph SE12.9 kmh SE 12.0 mph19.3 kmh 29.51 in999.3 mb 0.00 in0.0 mm 0.00 in0.0 mm 0.00 in0.0 mm
01:00 PM 98.3°F36.8°C 57.6°F14.2°C 26% 11.0 mph ESE17.7 kmh ESE 11.0 mph17.7 kmh 29.51 in999.3 mb 0.00 in0.0 mm 0.00 in0.0 mm 0.00 in0.0 mm
12:55 PM 98.1°F36.7°C 58.4°F14.7°C 27% 9.0 mph E14.5 kmh E 11.0 mph17.7 kmh 29.51 in999.3 mb 0.00 in0.0 mm 0.00 in0.0 mm 0.00 in0.0 mm
12:50 PM 97.7°F36.5°C 57.1°F13.9°C 26% 7.0 mph E11.3 kmh E 11.0 mph17.7 kmh 29.51 in999.3 mb 0.00 in0.0 mm 0.00 in0.0 mm 0.00 in0.0 mm
12:45 PM 97.8°F36.6°C 57.1°F13.9°C 26% 6.0 mph ESE9.7 kmh ESE 6.0 mph9.7 kmh 29.51 in999.3 mb 0.00 in0.0 mm 0.00 in0.0 mm 0.00 in0.0 mm
12:40 PM 97.7°F36.5°C 57.1°F13.9°C 26% 7.0 mph ESE11.3 kmh ESE 11.0 mph17.7 kmh 29.52 in999.7 mb 0.00 in0.0 mm 0.00 in0.0 mm 0.00 in0.0 mm
12:35 PM 97.4°F36.3°C 54.6°F12.6°C 24% 3.0 mph N4.8 kmh N 8.0 mph12.9 kmh 29.52 in999.7 mb 0.00 in0.0 mm 0.00 in0.0 mm 0.00 in0.0 mm
12:30 PM 96.9°F36.1°C 56.4°F13.6°C 26% 7.0 mph NE11.3 kmh NE 7.0 mph11.3 kmh 29.52 in999.7 mb 0.00 in0.0 mm 0.00 in0.0 mm 0.00 in0.0 mm
12:25 PM 96.7°F35.9°C 57.3°F14.1°C 27% 2.0 mph ESE3.2 kmh ESE 11.0 mph17.7 kmh 29.52 in999.7 mb 0.00 in0.0 mm 0.00 in0.0 mm 0.00 in0.0 mm
12:20 PM 96.3°F35.7°C 57.9°F14.4°C 28% 5.0 mph E8.0 kmh E 11.0 mph17.7 kmh 29.52 in999.7 mb 0.00 in0.0 mm 0.00 in0.0 mm 0.00 in0.0 mm
12:15 PM 95.8°F35.4°C 57.5°F14.2°C 28% 6.0 mph NNE9.7 kmh NNE 6.0 mph9.7 kmh 29.52 in999.7 mb 0.00 in0.0 mm 0.00 in0.0 mm 0.00 in0.0 mm
12:10 PM 95.5°F35.3°C 58.2°F14.6°C 29% 4.0 mph E6.4 kmh E 11.0 mph17.7 kmh 29.52 in999.7 mb 0.00 in0.0 mm 0.00 in0.0 mm 0.00 in0.0 mm
12:05 PM 95.4°F35.2°C 58.1°F14.5°C 29% 6.0 mph ESE9.7 kmh ESE 11.0 mph17.7 kmh 29.52 in999.7 mb 0.00 in0.0 mm 0.00 in0.0 mm 0.00 in0.0 mm
12:00 PM 95.3°F35.2°C 58.1°F14.5°C 29% 8.0 mph ESE12.9 kmh ESE 8.0 mph12.9 kmh 29.52 in999.7 mb 0.00 in0.0 mm 0.00 in0.0 mm 0.00 in0.0 mm
11:55 AM 95.6°F35.3°C 59.3°F15.2°C 30% 8.0 mph ESE12.9 kmh ESE 11.0 mph17.7 kmh 29.53 in1000.0 mb 0.00 in0.0 mm 0.00 in0.0 mm 0.00 in0.0 mm
11:50 AM 95.7°F35.4°C 57.4°F14.1°C 28% 6.0 mph E9.7 kmh E 11.0 mph17.7 kmh 29.53 in1000.0 mb 0.00 in0.0 mm 0.00 in0.0 mm 0.00 in0.0 mm
11:45 AM 95.8°F35.4°C 58.5°F14.7°C 29% 8.0 mph ENE12.9 kmh ENE 11.0 mph17.7 kmh 29.53 in1000.0 mb 0.00 in0.0 mm 0.00 in0.0 mm 0.00 in0.0 mm
11:40 AM 95.5°F35.3°C 58.2°F14.6°C 29% 9.0 mph NE14.5 kmh NE 13.0 mph20.9 kmh 29.53 in1000.0 mb 0.00 in0.0 mm 0.00 in0.0 mm 0.00 in0.0 mm
11:35 AM 95.1°F35.1°C 56.9°F13.8°C 28% 12.0 mph NE19.3 kmh NE 13.0 mph20.9 kmh 29.53 in1000.0 mb 0.00 in0.0 mm 0.00 in0.0 mm 0.00 in0.0 mm
11:30 AM 95.1°F35.1°C 56.9°F13.8°C 28% 9.0 mph ENE14.5 kmh ENE 9.0 mph14.5 kmh 29.53 in1000.0 mb 0.00 in0.0 mm 0.00 in0.0 mm 0.00 in0.0 mm
11:25 AM 95.0°F35.0°C 58.7°F14.8°C 30% 3.0 mph ENE4.8 kmh ENE 14.0 mph22.5 kmh 29.53 in1000.0 mb 0.00 in0.0 mm 0.00 in0.0 mm 0.00 in0.0 mm
11:20 AM 94.9°F34.9°C 57.7°F14.3°C 29% 4.0 mph NE6.4 kmh NE 14.0 mph22.5 kmh 29.53 in1000.0 mb 0.00 in0.0 mm 0.00 in0.0 mm 0.00 in0.0 mm
11:15 AM 94.8°F34.9°C 56.7°F13.7°C 28% 9.0 mph NE14.5 kmh NE 11.0 mph17.7 kmh 29.53 in1000.0 mb 0.00 in0.0 mm 0.00 in0.0 mm 0.00 in0.0 mm
11:10 AM 94.6°F34.8°C 57.5°F14.2°C 29% 14.0 mph NNE22.5 kmh NNE 14.0 mph22.5 kmh 29.53 in1000.0 mb 0.00 in0.0 mm 0.00 in0.0 mm 0.00 in0.0 mm
11:05 AM 94.4°F34.7°C 58.2°F14.6°C 30% 9.0 mph NE14.5 kmh NE 13.0 mph20.9 kmh 29.53 in1000.0 mb 0.00 in0.0 mm 0.00 in0.0 mm 0.00 in0.0 mm
11:00 AM 94.2°F34.6°C 58.1°F14.5°C 30% 10.0 mph NNE16.1 kmh NNE 10.0 mph16.1 kmh 29.53 in1000.0 mb 0.00 in0.0 mm 0.00 in0.0 mm 0.00 in0.0 mm
10:55 AM 93.5°F34.2°C 58.4°F14.7°C 31% 3.0 mph NNE4.8 kmh NNE 11.0 mph17.7 kmh 29.53 in1000.0 mb 0.00 in0.0 mm 0.00 in0.0 mm 0.00 in0.0 mm
10:50 AM 92.7°F33.7°C 58.6°F14.8°C 32% 10.0 mph N16.1 kmh N 11.0 mph17.7 kmh 29.53 in1000.0 mb 0.00 in0.0 mm 0.00 in0.0 mm 0.00 in0.0 mm
10:45 AM 92.2°F33.4°C 60.6°F15.9°C 35% 4.0 mph NE6.4 kmh NE 4.0 mph6.4 kmh 29.54 in1000.3 mb 0.00 in0.0 mm 0.00 in0.0 mm 0.00 in0.0 mm
10:40 AM 91.4°F33.0°C 58.3°F14.6°C 33% 7.0 mph NE11.3 kmh NE 10.0 mph16.1 kmh 29.53 in1000.0 mb 0.00 in0.0 mm 0.00 in0.0 mm 0.00 in0.0 mm
10:35 AM 90.6°F32.6°C 58.4°F14.7°C 34% 7.0 mph N11.3 kmh N 9.0 mph14.5 kmh 29.53 in1000.0 mb 0.00 in0.0 mm 0.00 in0.0 mm 0.00 in0.0 mm
10:30 AM 90.5°F32.5°C 60.7°F15.9°C 37% 3.0 mph NW4.8 kmh NW 3.0 mph4.8 kmh 29.54 in1000.3 mb 0.00 in0.0 mm 0.00 in0.0 mm 0.00 in0.0 mm
10:25 AM 90.3°F32.4°C 61.3°F16.3°C 38% 4.0 mph N6.4 kmh N 10.0 mph16.1 kmh 29.54 in1000.3 mb 0.00 in0.0 mm 0.00 in0.0 mm 0.00 in0.0 mm
10:20 AM 89.5°F31.9°C 59.1°F15.1°C 36% 3.0 mph NNE4.8 kmh NNE 10.0 mph16.1 kmh 29.54 in1000.3 mb 0.00 in0.0 mm 0.00 in0.0 mm 0.00 in0.0 mm
10:15 AM 89.0°F31.7°C 61.6°F16.4°C 40% 10.0 mph NNW16.1 kmh NNW 10.0 mph16.1 kmh 29.53 in1000.0 mb 0.00 in0.0 mm 0.00 in0.0 mm 0.00 in0.0 mm
10:10 AM 88.8°F31.6°C 60.7°F15.9°C 39% 3.0 mph NW4.8 kmh NW 8.0 mph12.9 kmh 29.54 in1000.3 mb 0.00 in0.0 mm 0.00 in0.0 mm 0.00 in0.0 mm
10:05 AM 88.4°F31.3°C 59.6°F15.3°C 38% 4.0 mph NW6.4 kmh NW 8.0 mph12.9 kmh 29.54 in1000.3 mb 0.00 in0.0 mm 0.00 in0.0 mm 0.00 in0.0 mm
10:00 AM 88.0°F31.1°C 59.2°F15.1°C 38% 6.0 mph NW9.7 kmh NW 6.0 mph9.7 kmh 29.54 in1000.3 mb 0.00 in0.0 mm 0.00 in0.0 mm 0.00 in0.0 mm
09:55 AM 87.8°F31.0°C 59.1°F15.1°C 38% 11.0 mph NW17.7 kmh NW 11.0 mph17.7 kmh 29.54 in1000.3 mb 0.00 in0.0 mm 0.00 in0.0 mm 0.00 in0.0 mm
09:50 AM 87.5°F30.8°C 58.8°F14.9°C 38% 10.0 mph NW16.1 kmh NW 11.0 mph17.7 kmh 29.54 in1000.3 mb 0.00 in0.0 mm 0.00 in0.0 mm 0.00 in0.0 mm
09:45 AM 87.1°F30.6°C 58.4°F14.7°C 38% 10.0 mph NW16.1 kmh NW 11.0 mph17.7 kmh 29.54 in1000.3 mb 0.00 in0.0 mm 0.00 in0.0 mm 0.00 in0.0 mm
09:40 AM 87.1°F30.6°C 59.9°F15.5°C 40% 5.0 mph NW8.0 kmh NW 10.0 mph16.1 kmh 29.54 in1000.3 mb 0.00 in0.0 mm 0.00 in0.0 mm 0.00 in0.0 mm
09:35 AM 86.7°F30.4°C 60.2°F15.7°C 41% 5.0 mph NNW8.0 kmh NNW 10.0 mph16.1 kmh 29.54 in1000.3 mb 0.00 in0.0 mm 0.00 in0.0 mm 0.00 in0.0 mm
09:30 AM 86.0°F30.0°C 58.9°F14.9°C 40% 6.0 mph N9.7 kmh N 6.0 mph9.7 kmh 29.54 in1000.3 mb 0.00 in0.0 mm 0.00 in0.0 mm 0.00 in0.0 mm
09:25 AM 85.6°F29.8°C 57.8°F14.3°C 39% 9.0 mph NW14.5 kmh NW 14.0 mph22.5 kmh 29.54 in1000.3 mb 0.00 in0.0 mm 0.00 in0.0 mm 0.00 in0.0 mm
09:20 AM 84.7°F29.3°C 58.4°F14.7°C 41% 11.0 mph N17.7 kmh N 14.0 mph22.5 kmh 29.54 in1000.3 mb 0.00 in0.0 mm 0.00 in0.0 mm 0.00 in0.0 mm
09:15 AM 83.7°F28.7°C 59.5°F15.3°C 44% 9.0 mph NNW14.5 kmh NNW 13.0 mph20.9 kmh 29.54 in1000.3 mb 0.00 in0.0 mm 0.00 in0.0 mm 0.00 in0.0 mm
09:10 AM 83.1°F28.4°C 60.2°F15.7°C 46% 5.0 mph NW8.0 kmh NW 13.0 mph20.9 kmh 29.54 in1000.3 mb 0.00 in0.0 mm 0.00 in0.0 mm 0.00 in0.0 mm
09:05 AM 82.4°F28.0°C 61.3°F16.3°C 49% 6.0 mph NW9.7 kmh NW 11.0 mph17.7 kmh 29.53 in1000.0 mb 0.00 in0.0 mm 0.00 in0.0 mm 0.00 in0.0 mm
09:00 AM 81.7°F27.6°C 60.7°F15.9°C 49% 6.0 mph NW9.7 kmh NW 7.0 mph11.3 kmh 29.54 in1000.3 mb 0.00 in0.0 mm 0.00 in0.0 mm 0.00 in0.0 mm
08:55 AM 81.1°F27.3°C 60.7°F15.9°C 50% 6.0 mph NNW9.7 kmh NNW 12.0 mph19.3 kmh 29.54 in1000.3 mb 0.00 in0.0 mm 0.00 in0.0 mm 0.00 in0.0 mm
08:50 AM 80.7°F27.1°C 60.9°F16.1°C 51% 10.0 mph NW16.1 kmh NW 11.0 mph17.7 kmh 29.54 in1000.3 mb 0.00 in0.0 mm 0.00 in0.0 mm 0.00 in0.0 mm
08:45 AM 80.3°F26.8°C 60.0°F15.6°C 50% 7.0 mph NW11.3 kmh NW 7.0 mph11.3 kmh 29.53 in1000.0 mb 0.00 in0.0 mm 0.00 in0.0 mm 0.00 in0.0 mm
08:40 AM 79.9°F26.6°C 60.7°F15.9°C 52% 9.0 mph NW14.5 kmh NW 13.0 mph20.9 kmh 29.54 in1000.3 mb 0.00 in0.0 mm 0.00 in0.0 mm 0.00 in0.0 mm
08:35 AM 79.0°F26.1°C 61.0°F16.1°C 54% 7.0 mph NNW11.3 kmh NNW 13.0 mph20.9 kmh 29.54 in1000.3 mb 0.00 in0.0 mm 0.00 in0.0 mm 0.00 in0.0 mm
08:30 AM 78.4°F25.8°C 61.4°F16.3°C 56% 6.0 mph NW9.7 kmh NW 6.0 mph9.7 kmh 29.53 in1000.0 mb 0.00 in0.0 mm 0.00 in0.0 mm 0.00 in0.0 mm
08:25 AM 77.6°F25.3°C 61.7°F16.5°C 58% 4.0 mph NW6.4 kmh NW 11.0 mph17.7 kmh 29.53 in1000.0 mb 0.00 in0.0 mm 0.00 in0.0 mm 0.00 in0.0 mm
08:20 AM 77.0°F25.0°C 61.6°F16.4°C 59% 6.0 mph NW9.7 kmh NW 10.0 mph16.1 kmh 29.53 in1000.0 mb 0.00 in0.0 mm 0.00 in0.0 mm 0.00 in0.0 mm
08:15 AM 76.6°F24.8°C 61.7°F16.5°C 60% 5.0 mph NW8.0 kmh NW 6.0 mph9.7 kmh 29.53 in1000.0 mb 0.00 in0.0 mm 0.00 in0.0 mm 0.00 in0.0 mm
08:10 AM 76.2°F24.6°C 61.8°F16.6°C 61% 5.0 mph NW8.0 kmh NW 10.0 mph16.1 kmh 29.53 in1000.0 mb 0.00 in0.0 mm 0.00 in0.0 mm 0.00 in0.0 mm
08:05 AM 75.8°F24.3°C 62.3°F16.8°C 63% 9.0 mph NW14.5 kmh NW 9.0 mph14.5 kmh 29.53 in1000.0 mb 0.00 in0.0 mm 0.00 in0.0 mm 0.00 in0.0 mm
08:00 AM 75.3°F24.1°C 62.3°F16.8°C 64% 3.0 mph NW4.8 kmh NW 4.0 mph6.4 kmh 29.53 in1000.0 mb 0.00 in0.0 mm 0.00 in0.0 mm 0.00 in0.0 mm
07:55 AM 74.9°F23.8°C 62.8°F17.1°C 66% 7.0 mph NW11.3 kmh NW 9.0 mph14.5 kmh 29.54 in1000.3 mb 0.00 in0.0 mm 0.00 in0.0 mm 0.00 in0.0 mm
07:50 AM 74.2°F23.4°C 63.4°F17.4°C 69% 5.0 mph NW8.0 kmh NW 9.0 mph14.5 kmh 29.54 in1000.3 mb 0.00 in0.0 mm 0.00 in0.0 mm 0.00 in0.0 mm
07:45 AM 73.4°F23.0°C 64.2°F17.9°C 73% 6.0 mph NNW9.7 kmh NNW 6.0 mph9.7 kmh 29.54 in1000.3 mb 0.00 in0.0 mm 0.00 in0.0 mm 0.00 in0.0 mm
07:40 AM 72.6°F22.6°C 65.4°F18.6°C 78% 5.0 mph N8.0 kmh N 6.0 mph9.7 kmh 29.54 in1000.3 mb 0.00 in0.0 mm 0.00 in0.0 mm 0.00 in0.0 mm
07:35 AM 71.9°F22.2°C 64.7°F18.2°C 78% 1.0 mph N1.6 kmh N 4.0 mph6.4 kmh 29.54 in1000.3 mb 0.00 in0.0 mm 0.00 in0.0 mm 0.00 in0.0 mm
07:30 AM 71.2°F21.8°C 64.7°F18.2°C 80% 2.0 mph N3.2 kmh N 2.0 mph3.2 kmh 29.53 in1000.0 mb 0.00 in0.0 mm 0.00 in0.0 mm 0.00 in0.0 mm
07:25 AM 70.4°F21.3°C 64.7°F18.2°C 82% Calm Calm 9.0 mph14.5 kmh 29.53 in1000.0 mb 0.00 in0.0 mm 0.00 in0.0 mm 0.00 in0.0 mm
07:20 AM 69.4°F20.8°C 64.0°F17.8°C 83% 2.0 mph WSW3.2 kmh WSW 7.0 mph11.3 kmh 29.54 in1000.3 mb 0.00 in0.0 mm 0.00 in0.0 mm 0.00 in0.0 mm
07:15 AM 68.6°F20.3°C 63.9°F17.7°C 85% 5.0 mph WSW8.0 kmh WSW 5.0 mph8.0 kmh 29.52 in999.7 mb 0.00 in0.0 mm 0.00 in0.0 mm 0.00 in0.0 mm
07:10 AM 67.7°F19.8°C 63.4°F17.4°C 86% 4.0 mph WSW6.4 kmh WSW 9.0 mph14.5 kmh 29.53 in1000.0 mb 0.00 in0.0 mm 0.00 in0.0 mm 0.00 in0.0 mm
07:00 AM 66.5°F19.2°C 63.2°F17.3°C 89% 5.0 mph WSW8.0 kmh WSW 5.0 mph8.0 kmh 29.52 in999.7 mb 0.00 in0.0 mm 0.00 in0.0 mm 0.00 in0.0 mm
06:55 AM 66.0°F18.9°C 63.0°F17.2°C 90% 4.0 mph W6.4 kmh W 6.0 mph9.7 kmh 29.53 in1000.0 mb 0.00 in0.0 mm 0.00 in0.0 mm 0.00 in0.0 mm
06:50 AM 65.6°F18.7°C 62.9°F17.2°C 91% 3.0 mph W4.8 kmh W 6.0 mph9.7 kmh 29.53 in1000.0 mb 0.00 in0.0 mm 0.00 in0.0 mm 0.00 in0.0 mm
06:45 AM 65.0°F18.3°C 62.3°F16.8°C 91% 3.0 mph W4.8 kmh W 4.0 mph6.4 kmh 29.53 in1000.0 mb 0.00 in0.0 mm 0.00 in0.0 mm 0.00 in0.0 mm
06:40 AM 64.6°F18.1°C 62.2°F16.8°C 92% 5.0 mph WSW8.0 kmh WSW 5.0 mph8.0 kmh 29.53 in1000.0 mb 0.00 in0.0 mm 0.00 in0.0 mm 0.00 in0.0 mm
06:35 AM 64.0°F17.8°C 61.6°F16.4°C 92% 4.0 mph WSW6.4 kmh WSW 5.0 mph8.0 kmh 29.52 in999.7 mb 0.00 in0.0 mm 0.00 in0.0 mm 0.00 in0.0 mm
06:30 AM 63.5°F17.5°C 61.1°F16.2°C 92% 3.0 mph WSW4.8 kmh WSW 3.0 mph4.8 kmh 29.52 in999.7 mb 0.00 in0.0 mm 0.00 in0.0 mm 0.00 in0.0 mm
06:25 AM 63.1°F17.3°C 60.7°F15.9°C 92% 4.0 mph WSW6.4 kmh WSW 4.0 mph6.4 kmh 29.52 in999.7 mb 0.00 in0.0 mm 0.00 in0.0 mm 0.00 in0.0 mm
06:20 AM 62.9°F17.2°C 60.5°F15.8°C 92% 2.0 mph WSW3.2 kmh WSW 4.0 mph6.4 kmh 29.52 in999.7 mb 0.00 in0.0 mm 0.00 in0.0 mm 0.00 in0.0 mm
06:15 AM 62.8°F17.1°C 60.5°F15.8°C 92% 2.0 mph WSW3.2 kmh WSW 2.0 mph3.2 kmh 29.52 in999.7 mb 0.00 in0.0 mm 0.00 in0.0 mm 0.00 in0.0 mm
06:10 AM 62.7°F17.1°C 60.4°F15.8°C 92% 4.0 mph WSW6.4 kmh WSW 8.0 mph12.9 kmh 29.52 in999.7 mb 0.00 in0.0 mm 0.00 in0.0 mm 0.00 in0.0 mm
06:05 AM 62.6°F17.0°C 60.3°F15.7°C 92% 7.0 mph SW11.3 kmh SW 8.0 mph12.9 kmh 29.52 in999.7 mb 0.00 in0.0 mm 0.00 in0.0 mm 0.00 in0.0 mm
06:00 AM 62.3°F16.8°C 60.0°F15.6°C 92% 6.0 mph SW9.7 kmh SW 8.0 mph12.9 kmh 29.51 in999.3 mb 0.00 in0.0 mm 0.00 in0.0 mm 0.00 in0.0 mm
05:55 AM 62.1°F16.7°C 59.8°F15.4°C 92% 7.0 mph SW11.3 kmh SW 10.0 mph16.1 kmh 29.52 in999.7 mb 0.00 in0.0 mm 0.00 in0.0 mm 0.00 in0.0 mm
05:50 AM 61.6°F16.4°C 59.0°F15.0°C 91% 7.0 mph SW11.3 kmh SW 7.0 mph11.3 kmh 29.52 in999.7 mb 0.00 in0.0 mm 0.00 in0.0 mm 0.00 in0.0 mm
05:45 AM 61.8°F16.6°C 59.2°F15.1°C 91% 2.0 mph SW3.2 kmh SW 3.0 mph4.8 kmh 29.52 in999.7 mb 0.00 in0.0 mm 0.00 in0.0 mm 0.00 in0.0 mm
05:40 AM 62.1°F16.7°C 59.5°F15.3°C 91% 2.0 mph SW3.2 kmh SW 6.0 mph9.7 kmh 29.52 in999.7 mb 0.00 in0.0 mm 0.00 in0.0 mm 0.00 in0.0 mm
05:35 AM 62.7°F17.1°C 60.0°F15.6°C 91% 5.0 mph SW8.0 kmh SW 6.0 mph9.7 kmh 29.52 in999.7 mb 0.00 in0.0 mm 0.00 in0.0 mm 0.00 in0.0 mm
05:30 AM 62.8°F17.1°C 60.5°F15.8°C 92% 3.0 mph SW4.8 kmh SW 3.0 mph4.8 kmh 29.52 in999.7 mb 0.00 in0.0 mm 0.00 in0.0 mm 0.00 in0.0 mm
05:25 AM 62.6°F17.0°C 60.3°F15.7°C 92% 2.0 mph SW3.2 kmh SW 5.0 mph8.0 kmh 29.52 in999.7 mb 0.00 in0.0 mm 0.00 in0.0 mm 0.00 in0.0 mm
05:20 AM 62.5°F16.9°C 59.8°F15.4°C 91% Calm Calm 5.0 mph8.0 kmh 29.52 in999.7 mb 0.00 in0.0 mm 0.00 in0.0 mm 0.00 in0.0 mm
05:15 AM 62.4°F16.9°C 59.7°F15.4°C 91% 4.0 mph SW6.4 kmh SW 4.0 mph6.4 kmh 29.51 in999.3 mb 0.00 in0.0 mm 0.00 in0.0 mm 0.00 in0.0 mm
05:10 AM 62.5°F16.9°C 59.8°F15.4°C 91% 5.0 mph SW8.0 kmh SW 10.0 mph16.1 kmh 29.52 in999.7 mb 0.00 in0.0 mm 0.00 in0.0 mm 0.00 in0.0 mm
05:05 AM 62.7°F17.1°C 60.0°F15.6°C 91% 7.0 mph SW11.3 kmh SW 10.0 mph16.1 kmh 29.51 in999.3 mb 0.00 in0.0 mm 0.00 in0.0 mm 0.00 in0.0 mm
05:00 AM 62.6°F17.0°C 59.9°F15.5°C 91% 8.0 mph SW12.9 kmh SW 8.0 mph12.9 kmh 29.51 in999.3 mb 0.00 in0.0 mm 0.00 in0.0 mm 0.00 in0.0 mm
04:55 AM 62.4°F16.9°C 59.7°F15.4°C 91% 6.0 mph SW9.7 kmh SW 10.0 mph16.1 kmh 29.52 in999.7 mb 0.00 in0.0 mm 0.00 in0.0 mm 0.00 in0.0 mm
04:50 AM 62.2°F16.8°C 59.6°F15.3°C 91% 7.0 mph SW11.3 kmh SW 10.0 mph16.1 kmh 29.52 in999.7 mb 0.00 in0.0 mm 0.00 in0.0 mm 0.00 in0.0 mm
04:45 AM 61.8°F16.6°C 58.8°F14.9°C 90% 8.0 mph SW12.9 kmh SW 9.0 mph14.5 kmh 29.51 in999.3 mb 0.00 in0.0 mm 0.00 in0.0 mm 0.00 in0.0 mm
04:40 AM 61.9°F16.6°C 58.9°F14.9°C 90% 6.0 mph SSW9.7 kmh SSW 10.0 mph16.1 kmh 29.51 in999.3 mb 0.00 in0.0 mm 0.00 in0.0 mm 0.00 in0.0 mm
04:35 AM 61.9°F16.6°C 58.6°F14.8°C 89% 4.0 mph SW6.4 kmh SW 10.0 mph16.1 kmh 29.51 in999.3 mb 0.00 in0.0 mm 0.00 in0.0 mm 0.00 in0.0 mm
04:30 AM 62.2°F16.8°C 58.9°F14.9°C 89% 5.0 mph S8.0 kmh S 5.0 mph8.0 kmh 29.51 in999.3 mb 0.00 in0.0 mm 0.00 in0.0 mm 0.00 in0.0 mm
04:25 AM 62.5°F16.9°C 59.2°F15.1°C 89% 4.0 mph S6.4 kmh S 9.0 mph14.5 kmh 29.51 in999.3 mb 0.00 in0.0 mm 0.00 in0.0 mm 0.00 in0.0 mm
04:20 AM 62.7°F17.1°C 59.1°F15.1°C 88% 6.0 mph S9.7 kmh S 9.0 mph14.5 kmh 29.51 in999.3 mb 0.00 in0.0 mm 0.00 in0.0 mm 0.00 in0.0 mm
04:15 AM 62.9°F17.2°C 59.3°F15.2°C 88% 4.0 mph W6.4 kmh W 4.0 mph6.4 kmh 29.51 in999.3 mb 0.00 in0.0 mm 0.00 in0.0 mm 0.00 in0.0 mm
04:10 AM 63.0°F17.2°C 59.4°F15.2°C 88% 2.0 mph W3.2 kmh W 4.0 mph6.4 kmh 29.50 in999.0 mb 0.00 in0.0 mm 0.00 in0.0 mm 0.00 in0.0 mm
04:05 AM 63.1°F17.3°C 59.2°F15.1°C 87% 3.0 mph W4.8 kmh W 4.0 mph6.4 kmh 29.50 in999.0 mb 0.00 in0.0 mm 0.00 in0.0 mm 0.00 in0.0 mm
04:00 AM 63.5°F17.5°C 59.6°F15.3°C 87% 2.0 mph W3.2 kmh W 2.0 mph3.2 kmh 29.50 in999.0 mb 0.00 in0.0 mm 0.00 in0.0 mm 0.00 in0.0 mm
03:55 AM 64.1°F17.8°C 60.2°F15.7°C 87% 5.0 mph W8.0 kmh W 5.0 mph8.0 kmh 29.50 in999.0 mb 0.00 in0.0 mm 0.00 in0.0 mm 0.00 in0.0 mm
03:50 AM 64.4°F18.0°C 60.5°F15.8°C 87% Calm Calm 2.0 mph3.2 kmh 29.51 in999.3 mb 0.00 in0.0 mm 0.00 in0.0 mm 0.00 in0.0 mm
03:45 AM 64.6°F18.1°C 60.7°F15.9°C 87% 1.0 mph W1.6 kmh W 2.0 mph3.2 kmh 29.51 in999.3 mb 0.00 in0.0 mm 0.00 in0.0 mm 0.00 in0.0 mm
03:40 AM 64.8°F18.2°C 60.9°F16.1°C 87% 4.0 mph W6.4 kmh W 10.0 mph16.1 kmh 29.52 in999.7 mb 0.00 in0.0 mm 0.00 in0.0 mm 0.00 in0.0 mm
03:35 AM 65.0°F18.3°C 61.0°F16.1°C 87% 2.0 mph W3.2 kmh W 10.0 mph16.1 kmh 29.51 in999.3 mb 0.00 in0.0 mm 0.00 in0.0 mm 0.00 in0.0 mm
03:30 AM 65.2°F18.4°C 60.9°F16.1°C 86% 1.0 mph WSW1.6 kmh WSW 1.0 mph1.6 kmh 29.51 in999.3 mb 0.00 in0.0 mm 0.00 in0.0 mm 0.00 in0.0 mm
03:25 AM 65.6°F18.7°C 61.3°F16.3°C 86% 5.0 mph W8.0 kmh W 12.0 mph19.3 kmh 29.53 in1000.0 mb 0.00 in0.0 mm 0.00 in0.0 mm 0.00 in0.0 mm
03:20 AM 65.8°F18.8°C 61.5°F16.4°C 86% 8.0 mph W12.9 kmh W 12.0 mph19.3 kmh 29.53 in1000.0 mb 0.00 in0.0 mm 0.00 in0.0 mm 0.00 in0.0 mm
03:15 AM 65.9°F18.8°C 61.3°F16.3°C 85% 12.0 mph NW19.3 kmh NW 12.0 mph19.3 kmh 29.53 in1000.0 mb 0.00 in0.0 mm 0.00 in0.0 mm 0.00 in0.0 mm
03:10 AM 66.0°F18.9°C 61.7°F16.5°C 86% 5.0 mph N8.0 kmh N 15.0 mph24.1 kmh 29.52 in999.7 mb 0.00 in0.0 mm 0.00 in0.0 mm 0.00 in0.0 mm
03:05 AM 66.1°F18.9°C 61.8°F16.6°C 86% 6.0 mph NW9.7 kmh NW 15.0 mph24.1 kmh 29.53 in1000.0 mb 0.00 in0.0 mm 0.00 in0.0 mm 0.00 in0.0 mm
03:00 AM 66.1°F18.9°C 61.5°F16.4°C 85% 7.0 mph WSW11.3 kmh WSW 8.0 mph12.9 kmh 29.51 in999.3 mb 0.00 in0.0 mm 0.00 in0.0 mm 0.00 in0.0 mm
02:55 AM 66.2°F19.0°C 61.6°F16.4°C 85% 7.0 mph SW11.3 kmh SW 20.0 mph32.2 kmh 29.51 in999.3 mb 0.00 in0.0 mm 0.00 in0.0 mm 0.00 in0.0 mm
02:50 AM 65.9°F18.8°C 61.3°F16.3°C 85% 11.0 mph NNW17.7 kmh NNW 20.0 mph32.2 kmh 29.53 in1000.0 mb 0.00 in0.0 mm 0.00 in0.0 mm 0.00 in0.0 mm
02:45 AM 66.0°F18.9°C 61.0°F16.1°C 84% 10.0 mph NNW16.1 kmh NNW 10.0 mph16.1 kmh 29.51 in999.3 mb 0.00 in0.0 mm 0.00 in0.0 mm 0.00 in0.0 mm
02:40 AM 66.4°F19.1°C 60.7°F15.9°C 82% 6.0 mph SW9.7 kmh SW 9.0 mph14.5 kmh 29.51 in999.3 mb 0.00 in0.0 mm 0.00 in0.0 mm 0.00 in0.0 mm
02:35 AM 67.5°F19.7°C 61.5°F16.4°C 81% 5.0 mph NW8.0 kmh NW 5.0 mph8.0 kmh 29.50 in999.0 mb 0.00 in0.0 mm 0.00 in0.0 mm 0.00 in0.0 mm
02:30 AM 68.1°F20.1°C 62.1°F16.7°C 81% 2.0 mph NW3.2 kmh NW 2.0 mph3.2 kmh 29.51 in999.3 mb 0.00 in0.0 mm 0.00 in0.0 mm 0.00 in0.0 mm
02:25 AM 68.5°F20.3°C 62.1°F16.7°C 80% 2.0 mph NW3.2 kmh NW 9.0 mph14.5 kmh 29.51 in999.3 mb 0.00 in0.0 mm 0.00 in0.0 mm 0.00 in0.0 mm
02:20 AM 68.9°F20.5°C 62.1°F16.7°C 79% 3.0 mph SW4.8 kmh SW 9.0 mph14.5 kmh 29.51 in999.3 mb 0.00 in0.0 mm 0.00 in0.0 mm 0.00 in0.0 mm
02:15 AM 69.2°F20.7°C 62.4°F16.9°C 79% 7.0 mph SW11.3 kmh SW 7.0 mph11.3 kmh 29.50 in999.0 mb 0.00 in0.0 mm 0.00 in0.0 mm 0.00 in0.0 mm
02:10 AM 69.2°F20.7°C 62.4°F16.9°C 79% 10.0 mph SW16.1 kmh SW 14.0 mph22.5 kmh 29.50 in999.0 mb 0.00 in0.0 mm 0.00 in0.0 mm 0.00 in0.0 mm
02:05 AM 69.4°F20.8°C 62.6°F17.0°C 79% 12.0 mph SSW19.3 kmh SSW 14.0 mph22.5 kmh 29.50 in999.0 mb 0.00 in0.0 mm 0.00 in0.0 mm 0.00 in0.0 mm
02:00 AM 69.5°F20.8°C 62.4°F16.9°C 78% 12.0 mph SW19.3 kmh SW 12.0 mph19.3 kmh 29.50 in999.0 mb 0.00 in0.0 mm 0.00 in0.0 mm 0.00 in0.0 mm
01:55 AM 69.4°F20.8°C 62.6°F17.0°C 79% 12.0 mph SW19.3 kmh SW 13.0 mph20.9 kmh 29.50 in999.0 mb 0.00 in0.0 mm 0.00 in0.0 mm 0.00 in0.0 mm
01:50 AM 69.1°F20.6°C 62.7°F17.1°C 80% 8.0 mph SW12.9 kmh SW 13.0 mph20.9 kmh 29.51 in999.3 mb 0.00 in0.0 mm 0.00 in0.0 mm 0.00 in0.0 mm
01:45 AM 68.8°F20.4°C 62.7°F17.1°C 81% 11.0 mph SSW17.7 kmh SSW 11.0 mph17.7 kmh 29.50 in999.0 mb 0.00 in0.0 mm 0.00 in0.0 mm 0.00 in0.0 mm
01:40 AM 68.6°F20.3°C 62.5°F16.9°C 81% 10.0 mph SW16.1 kmh SW 13.0 mph20.9 kmh 29.51 in999.3 mb 0.00 in0.0 mm 0.00 in0.0 mm 0.00 in0.0 mm
01:35 AM 68.3°F20.2°C 62.6°F17.0°C 82% 9.0 mph SW14.5 kmh SW 13.0 mph20.9 kmh 29.51 in999.3 mb 0.00 in0.0 mm 0.00 in0.0 mm 0.00 in0.0 mm
01:30 AM 68.0°F20.0°C 62.3°F16.8°C 82% 9.0 mph SSW14.5 kmh SSW 9.0 mph14.5 kmh 29.50 in999.0 mb 0.00 in0.0 mm 0.00 in0.0 mm 0.00 in0.0 mm
01:25 AM 67.9°F19.9°C 62.2°F16.8°C 82% 5.0 mph SSW8.0 kmh SSW 10.0 mph16.1 kmh 29.50 in999.0 mb 0.00 in0.0 mm 0.00 in0.0 mm 0.00 in0.0 mm
01:20 AM 68.0°F20.0°C 62.0°F16.7°C 81% 7.0 mph SSW11.3 kmh SSW 10.0 mph16.1 kmh 29.50 in999.0 mb 0.00 in0.0 mm 0.00 in0.0 mm 0.00 in0.0 mm
01:15 AM 68.2°F20.1°C 62.2°F16.8°C 81% 6.0 mph SSW9.7 kmh SSW 6.0 mph9.7 kmh 29.51 in999.3 mb 0.00 in0.0 mm 0.00 in0.0 mm 0.00 in0.0 mm
01:10 AM 68.4°F20.2°C 62.0°F16.7°C 80% 7.0 mph SSW11.3 kmh SSW 10.0 mph16.1 kmh 29.51 in999.3 mb 0.00 in0.0 mm 0.00 in0.0 mm 0.00 in0.0 mm
01:05 AM 68.7°F20.4°C 62.3°F16.8°C 80% 6.0 mph SSW9.7 kmh SSW 10.0 mph16.1 kmh 29.51 in999.3 mb 0.00 in0.0 mm 0.00 in0.0 mm 0.00 in0.0 mm
01:00 AM 68.8°F20.4°C 62.0°F16.7°C 79% 9.0 mph SSW14.5 kmh SSW 10.0 mph16.1 kmh 29.52 in999.7 mb 0.00 in0.0 mm 0.00 in0.0 mm 0.00 in0.0 mm
12:55 AM 69.0°F20.6°C 61.9°F16.6°C 78% 9.0 mph SSW14.5 kmh SSW 10.0 mph16.1 kmh 29.52 in999.7 mb 0.00 in0.0 mm 0.00 in0.0 mm 0.00 in0.0 mm
12:50 AM 69.4°F20.8°C 61.9°F16.6°C 77% 7.0 mph SSW11.3 kmh SSW 10.0 mph16.1 kmh 29.52 in999.7 mb 0.00 in0.0 mm 0.00 in0.0 mm 0.00 in0.0 mm
12:45 AM 69.6°F20.9°C 61.7°F16.5°C 76% 7.0 mph SW11.3 kmh SW 7.0 mph11.3 kmh 29.52 in999.7 mb 0.00 in0.0 mm 0.00 in0.0 mm 0.00 in0.0 mm
12:40 AM 69.8°F21.0°C 61.9°F16.6°C 76% 9.0 mph SSW14.5 kmh SSW 10.0 mph16.1 kmh 29.52 in999.7 mb 0.00 in0.0 mm 0.00 in0.0 mm 0.00 in0.0 mm
12:35 AM 70.0°F21.1°C 62.1°F16.7°C 76% 8.0 mph SSW12.9 kmh SSW 10.0 mph16.1 kmh 29.52 in999.7 mb 0.00 in0.0 mm 0.00 in0.0 mm 0.00 in0.0 mm
12:30 AM 69.9°F21.1°C 62.0°F16.7°C 76% 9.0 mph SSW14.5 kmh SSW 10.0 mph16.1 kmh 29.52 in999.7 mb 0.00 in0.0 mm 0.00 in0.0 mm 0.00 in0.0 mm
12:25 AM 69.7°F20.9°C 61.8°F16.6°C 76% 7.0 mph SW11.3 kmh SW 9.0 mph14.5 kmh 29.53 in1000.0 mb 0.00 in0.0 mm 0.00 in0.0 mm 0.00 in0.0 mm
12:20 AM 69.8°F21.0°C 61.9°F16.6°C 76% 4.0 mph SW6.4 kmh SW 9.0 mph14.5 kmh 29.53 in1000.0 mb 0.00 in0.0 mm 0.00 in0.0 mm 0.00 in0.0 mm
12:15 AM 69.7°F20.9°C 61.8°F16.6°C 76% 4.0 mph SW6.4 kmh SW 5.0 mph8.0 kmh 29.53 in1000.0 mb 0.00 in0.0 mm 0.00 in0.0 mm 0.00 in0.0 mm
12:10 AM 69.9°F21.1°C 61.6°F16.4°C 75% 6.0 mph SW9.7 kmh SW 10.0 mph16.1 kmh 29.53 in1000.0 mb 0.00 in0.0 mm 0.00 in0.0 mm 0.00 in0.0 mm
12:05 AM 70.1°F21.2°C 61.4°F16.3°C 74% 9.0 mph SW14.5 kmh SW 10.0 mph16.1 kmh 29.52 in999.7 mb 0.00 in0.0 mm 0.00 in0.0 mm 0.00 in0.0 mm
12:00 AM 70.4°F21.3°C 61.3°F16.3°C 73% 9.0 mph SW14.5 kmh SW 12.0 mph19.3 kmh 29.53 in1000.0 mb 0.00 in0.0 mm 0.00 in0.0 mm 0.00 in0.0 mm